sensor_id;sensor_type;location;lat;lon;timestamp;pressure;altitude;pressure_sealevel;temperature;humidity
14757;BME280;40502;47.710;13.072;2022-07-05T00:00:25;101751.63;;;24.22;41.70
14757;BME280;40502;47.710;13.072;2022-07-05T00:03:29;101742.69;;;24.20;40.92
14757;BME280;40502;47.710;13.072;2022-07-05T00:06:35;101747.16;;;24.16;40.31
14757;BME280;40502;47.710;13.072;2022-07-05T00:09:38;101745.19;;;24.12;39.56
14757;BME280;40502;47.710;13.072;2022-07-05T00:12:42;101737.59;;;24.07;39.78
14757;BME280;40502;47.710;13.072;2022-07-05T00:15:46;101745.44;;;24.05;40.26
14757;BME280;40502;47.710;13.072;2022-07-05T00:18:49;101747.41;;;24.04;41.38
14757;BME280;40502;47.710;13.072;2022-07-05T00:21:55;101744.88;;;24.08;42.18
14757;BME280;40502;47.710;13.072;2022-07-05T00:24:59;101742.66;;;24.10;42.63
14757;BME280;40502;47.710;13.072;2022-07-05T00:28:04;101747.13;;;24.11;42.98
14757;BME280;40502;47.710;13.072;2022-07-05T00:31:07;101738.16;;;24.14;43.33
14757;BME280;40502;47.710;13.072;2022-07-05T00:34:11;101735.38;;;24.14;43.07
14757;BME280;40502;47.710;13.072;2022-07-05T00:37:16;101741.28;;;24.18;43.61
14757;BME280;40502;47.710;13.072;2022-07-05T00:40:20;101738.47;;;24.18;43.23
14757;BME280;40502;47.710;13.072;2022-07-05T00:43:24;101744.91;;;24.18;43.14
14757;BME280;40502;47.710;13.072;2022-07-05T00:46:28;101747.16;;;24.16;43.02
14757;BME280;40502;47.710;13.072;2022-07-05T00:49:33;101744.91;;;24.13;42.13
14757;BME280;40502;47.710;13.072;2022-07-05T00:52:39;101751.63;;;24.12;41.61
14757;BME280;40502;47.710;13.072;2022-07-05T00:55:44;101744.88;;;24.08;41.21
14757;BME280;40502;47.710;13.072;2022-07-05T00:58:48;101755.53;;;24.06;41.08
14757;BME280;40502;47.710;13.072;2022-07-05T01:02:17;101751.06;;;24.05;40.82
14757;BME280;40502;47.710;13.072;2022-07-05T01:05:25;101749.91;;;24.01;40.92
14757;BME280;40502;47.710;13.072;2022-07-05T01:08:30;101742.66;;;24.05;40.64
14757;BME280;40502;47.710;13.072;2022-07-05T01:11:36;101754.31;;;23.76;41.01
14757;BME280;40502;47.710;13.072;2022-07-05T01:14:41;101745.91;;;23.71;41.19
14757;BME280;40502;47.710;13.072;2022-07-05T01:17:46;101744.22;;;23.70;41.03
14757;BME280;40502;47.710;13.072;2022-07-05T01:20:50;101753.16;;;23.67;40.92
14757;BME280;40502;47.710;13.072;2022-07-05T01:23:55;101754.28;;;23.66;41.09
14757;BME280;40502;47.710;13.072;2022-07-05T01:26:59;101749.22;;;23.63;40.85
14757;BME280;40502;47.710;13.072;2022-07-05T01:30:03;101752.56;;;23.60;40.59
14757;BME280;40502;47.710;13.072;2022-07-05T01:33:08;101752.03;;;23.58;40.65
14757;BME280;40502;47.710;13.072;2022-07-05T01:36:13;101752.03;;;23.58;40.70
14757;BME280;40502;47.710;13.072;2022-07-05T01:39:18;101755.94;;;23.56;40.89
14757;BME280;40502;47.710;13.072;2022-07-05T01:42:22;101753.69;;;23.53;40.49
14757;BME280;40502;47.710;13.072;2022-07-05T01:45:26;101757.59;;;23.52;40.91
14757;BME280;40502;47.710;13.072;2022-07-05T01:48:44;101757.03;;;23.50;40.61
14757;BME280;40502;47.710;13.072;2022-07-05T01:51:50;101760.94;;;23.49;40.37
14757;BME280;40502;47.710;13.072;2022-07-05T01:54:56;101760.38;;;23.47;40.59
14757;BME280;40502;47.710;13.072;2022-07-05T01:58:00;101755.06;;;23.46;40.13
14757;BME280;40502;47.710;13.072;2022-07-05T02:01:04;101757.28;;;23.44;40.36
14757;BME280;40502;47.710;13.072;2022-07-05T02:04:09;101761.19;;;23.43;40.49
14757;BME280;40502;47.710;13.072;2022-07-05T02:07:14;101761.72;;;23.39;40.36
14757;BME280;40502;47.710;13.072;2022-07-05T02:10:20;101754.47;;;23.38;40.23
14757;BME280;40502;47.710;13.072;2022-07-05T02:13:23;101756.69;;;23.36;40.16
14757;BME280;40502;47.710;13.072;2022-07-05T02:16:28;101761.44;;;23.36;40.04
14757;BME280;40502;47.710;13.072;2022-07-05T02:19:33;101758.06;;;23.34;39.70
14757;BME280;40502;47.710;13.072;2022-07-05T02:22:38;101763.94;;;23.32;40.12
14757;BME280;40502;47.710;13.072;2022-07-05T02:25:43;101758.59;;;23.31;40.19
14757;BME280;40502;47.710;13.072;2022-07-05T02:28:50;101759.16;;;23.28;40.05
14757;BME280;40502;47.710;13.072;2022-07-05T02:31:54;101760.28;;;23.27;39.99
14757;BME280;40502;47.710;13.072;2022-07-05T02:34:59;101762.50;;;23.25;39.98
14757;BME280;40502;47.710;13.072;2022-07-05T02:38:04;101764.75;;;23.23;39.98
14757;BME280;40502;47.710;13.072;2022-07-05T02:41:10;101765.56;;;23.23;39.84
14757;BME280;40502;47.710;13.072;2022-07-05T02:44:18;101765.00;;;23.21;39.83
14757;BME280;40502;47.710;13.072;2022-07-05T02:47:23;101768.09;;;23.19;39.59
14757;BME280;40502;47.710;13.072;2022-07-05T02:50:27;101763.88;;;23.17;39.64
14757;BME280;40502;47.710;13.072;2022-07-05T02:53:32;101770.56;;;23.16;39.68
14757;BME280;40502;47.710;13.072;2022-07-05T02:56:40;101765.25;;;23.14;39.38
14757;BME280;40502;47.710;13.072;2022-07-05T02:59:46;101764.69;;;23.12;39.59
14757;BME280;40502;47.710;13.072;2022-07-05T03:02:51;101772.47;;;23.10;39.56
14757;BME280;40502;47.710;13.072;2022-07-05T03:05:56;101779.19;;;23.09;39.75
14757;BME280;40502;47.710;13.072;2022-07-05T03:09:00;101770.19;;;23.07;39.33
14757;BME280;40502;47.710;13.072;2022-07-05T03:12:06;101775.78;;;23.07;39.30
14757;BME280;40502;47.710;13.072;2022-07-05T03:15:12;101784.72;;;23.04;39.35
14757;BME280;40502;47.710;13.072;2022-07-05T03:18:17;101783.03;;;23.03;39.33
14757;BME280;40502;47.710;13.072;2022-07-05T03:21:21;101779.69;;;23.01;39.45
14757;BME280;40502;47.710;13.072;2022-07-05T03:24:25;101777.44;;;22.98;39.09
14757;BME280;40502;47.710;13.072;2022-07-05T03:27:30;101775.72;;;22.97;39.22
14757;BME280;40502;47.710;13.072;2022-07-05T03:30:35;101774.03;;;22.96;39.24
14757;BME280;40502;47.710;13.072;2022-07-05T03:33:38;101777.69;;;22.96;39.23
14757;BME280;40502;47.710;13.072;2022-07-05T03:36:44;101773.47;;;22.94;39.19
14757;BME280;40502;47.710;13.072;2022-07-05T03:39:51;101781.03;;;22.93;39.33
14757;BME280;40502;47.710;13.072;2022-07-05T03:42:58;101778.50;;;22.92;39.39
14757;BME280;40502;47.710;13.072;2022-07-05T03:46:06;101781.84;;;22.89;39.28
14757;BME280;40502;47.710;13.072;2022-07-05T03:49:11;101793.28;;;22.87;39.28
14757;BME280;40502;47.710;13.072;2022-07-05T03:52:15;101779.28;;;22.87;39.19
14757;BME280;40502;47.710;13.072;2022-07-05T03:55:26;101775.94;;;22.85;39.17
14757;BME280;40502;47.710;13.072;2022-07-05T03:58:32;101778.72;;;22.85;39.13
14757;BME280;40502;47.710;13.072;2022-07-05T04:01:36;101774.50;;;22.82;38.81
14757;BME280;40502;47.710;13.072;2022-07-05T04:04:41;101787.09;;;22.80;38.94
14757;BME280;40502;47.710;13.072;2022-07-05T04:07:49;101784.56;;;22.78;38.95
14757;BME280;40502;47.710;13.072;2022-07-05T04:10:56;101788.47;;;22.77;39.20
14757;BME280;40502;47.710;13.072;2022-07-05T04:14:01;101795.16;;;22.76;39.08
14757;BME280;40502;47.710;13.072;2022-07-05T04:17:06;101794.59;;;22.74;39.11
14757;BME280;40502;47.710;13.072;2022-07-05T04:20:10;101789.00;;;22.74;39.22
14757;BME280;40502;47.710;13.072;2022-07-05T04:23:17;101795.97;;;22.72;39.29
14757;BME280;40502;47.710;13.072;2022-07-05T04:26:21;101795.13;;;22.71;39.24
14757;BME280;40502;47.710;13.072;2022-07-05T04:29:26;101785.06;;;22.70;39.39
14757;BME280;40502;47.710;13.072;2022-07-05T04:32:30;101794.81;;;22.67;39.47
14757;BME280;40502;47.710;13.072;2022-07-05T04:35:35;101782.78;;;22.67;39.48
14757;BME280;40502;47.710;13.072;2022-07-05T04:38:39;101788.38;;;22.67;39.77
14757;BME280;40502;47.710;13.072;2022-07-05T04:41:43;101794.50;;;22.64;39.87
14757;BME280;40502;47.710;13.072;2022-07-05T04:44:49;101800.94;;;22.64;39.95
14757;BME280;40502;47.710;13.072;2022-07-05T04:47:54;101804.00;;;22.63;40.00
14757;BME280;40502;47.710;13.072;2022-07-05T04:51:00;101807.91;;;22.62;40.08
14757;BME280;40502;47.710;13.072;2022-07-05T04:54:06;101803.44;;;22.61;40.18
14757;BME280;40502;47.710;13.072;2022-07-05T04:57:10;101806.25;;;22.61;40.33
14757;BME280;40502;47.710;13.072;2022-07-05T05:00:15;101806.25;;;22.61;40.47
14757;BME280;40502;47.710;13.072;2022-07-05T05:03:19;101810.13;;;22.60;40.47
14757;BME280;40502;47.710;13.072;2022-07-05T05:06:23;101807.91;;;22.62;40.48
14757;BME280;40502;47.710;13.072;2022-07-05T05:09:27;101811.81;;;22.61;40.53
14757;BME280;40502;47.710;13.072;2022-07-05T05:12:31;101810.13;;;22.60;40.64
14757;BME280;40502;47.710;13.072;2022-07-05T05:15:36;101813.47;;;22.57;40.87
14757;BME280;40502;47.710;13.072;2022-07-05T05:18:40;101819.09;;;22.62;40.80
14757;BME280;40502;47.710;13.072;2022-07-05T05:21:44;101812.97;;;22.65;40.90
14757;BME280;40502;47.710;13.072;2022-07-05T05:24:48;101823.38;;;22.69;40.83
14757;BME280;40502;47.710;13.072;2022-07-05T05:27:51;101823.13;;;22.76;40.71
14757;BME280;40502;47.710;13.072;2022-07-05T05:30:56;101824.50;;;22.74;40.95
14757;BME280;40502;47.710;13.072;2022-07-05T05:34:01;101818.88;;;22.68;41.01
14757;BME280;40502;47.710;13.072;2022-07-05T05:37:05;101817.72;;;22.64;41.18
14757;BME280;40502;47.710;13.072;2022-07-05T05:40:09;101826.06;;;22.59;41.37
14757;BME280;40502;47.710;13.072;2022-07-05T05:43:13;101825.47;;;22.57;41.53
14757;BME280;40502;47.710;13.072;2022-07-05T05:46:18;101836.41;;;22.59;41.59
14757;BME280;40502;47.710;13.072;2022-07-05T05:49:22;101829.97;;;22.58;41.78
14757;BME280;40502;47.710;13.072;2022-07-05T05:52:26;101845.31;;;22.56;41.87
14757;BME280;40502;47.710;13.072;2022-07-05T05:55:30;101844.22;;;22.57;42.00
14757;BME280;40502;47.710;13.072;2022-07-05T05:58:34;101845.88;;;22.58;41.97
14757;BME280;40502;47.710;13.072;2022-07-05T06:01:46;101847.56;;;22.59;42.01
14757;BME280;40502;47.710;13.072;2022-07-05T06:04:50;101847.31;;;22.60;42.11
14757;BME280;40502;47.710;13.072;2022-07-05T06:07:55;101847.03;;;22.62;42.14
14757;BME280;40502;47.710;13.072;2022-07-05T06:10:59;101835.84;;;22.62;42.10
14757;BME280;40502;47.710;13.072;2022-07-05T06:14:06;101848.75;;;22.63;42.22
14757;BME280;40502;47.710;13.072;2022-07-05T06:17:11;101854.06;;;22.64;42.38
14757;BME280;40502;47.710;13.072;2022-07-05T06:20:17;101853.22;;;22.64;42.33
14757;BME280;40502;47.710;13.072;2022-07-05T06:23:21;101856.13;;;22.74;42.21
14757;BME280;40502;47.710;13.072;2022-07-05T06:26:25;101854.47;;;22.78;42.23
14757;BME280;40502;47.710;13.072;2022-07-05T06:29:29;101858.84;;;22.69;42.30
14757;BME280;40502;47.710;13.072;2022-07-05T06:32:36;101863.28;;;22.65;42.53
14757;BME280;40502;47.710;13.072;2022-07-05T06:35:40;101867.22;;;22.64;42.66
14757;BME280;40502;47.710;13.072;2022-07-05T06:38:43;101865.81;;;22.66;42.83
14757;BME280;40502;47.710;13.072;2022-07-05T06:41:47;101864.44;;;22.69;43.22
14757;BME280;40502;47.710;13.072;2022-07-05T06:44:51;101872.56;;;22.71;43.26
14757;BME280;40502;47.710;13.072;2022-07-05T06:47:57;101874.56;;;22.75;43.73
14757;BME280;40502;47.710;13.072;2022-07-05T06:51:01;101877.97;;;22.77;43.93
14757;BME280;40502;47.710;13.072;2022-07-05T06:54:05;101874.06;;;22.78;43.73
14757;BME280;40502;47.710;13.072;2022-07-05T06:57:29;101868.19;;;22.80;43.77
14757;BME280;40502;47.710;13.072;2022-07-05T07:00:34;101873.25;;;22.83;43.92
14757;BME280;40502;47.710;13.072;2022-07-05T07:03:59;101875.50;;;22.86;43.97
14757;BME280;40502;47.710;13.072;2022-07-05T07:07:23;101868.56;;;22.89;44.49
14757;BME280;40502;47.710;13.072;2022-07-05T07:10:44;101874.44;;;22.92;44.44
14757;BME280;40502;47.710;13.072;2022-07-05T07:13:49;101874.75;;;22.96;44.51
14757;BME280;40502;47.710;13.072;2022-07-05T07:16:52;101867.78;;;22.98;44.24
14757;BME280;40502;47.710;13.072;2022-07-05T07:19:58;101872.00;;;23.01;44.17
14757;BME280;40502;47.710;13.072;2022-07-05T07:23:01;101869.75;;;23.03;44.18
14757;BME280;40502;47.710;13.072;2022-07-05T07:26:05;101865.88;;;23.04;44.27
14757;BME280;40502;47.710;13.072;2022-07-05T07:29:09;101863.66;;;23.06;44.23
14757;BME280;40502;47.710;13.072;2022-07-05T07:32:13;101857.78;;;23.08;44.17
14757;BME280;40502;47.710;13.072;2022-07-05T07:35:18;101863.13;;;23.09;44.24
14757;BME280;40502;47.710;13.072;2022-07-05T07:38:22;101859.22;;;23.10;44.26
14757;BME280;40502;47.710;13.072;2022-07-05T07:41:26;101860.66;;;23.13;44.08
14757;BME280;40502;47.710;13.072;2022-07-05T07:44:30;101858.69;;;23.13;44.26
14757;BME280;40502;47.710;13.072;2022-07-05T07:47:35;101865.97;;;23.14;44.15
14757;BME280;40502;47.710;13.072;2022-07-05T07:50:40;101863.78;;;23.16;43.98
14757;BME280;40502;47.710;13.072;2022-07-05T07:53:44;101865.44;;;23.17;44.03
14757;BME280;40502;47.710;13.072;2022-07-05T07:56:48;101859.84;;;23.17;43.79
14757;BME280;40502;47.710;13.072;2022-07-05T07:59:52;101857.03;;;23.17;44.10
14757;BME280;40502;47.710;13.072;2022-07-05T08:02:55;101860.69;;;23.18;44.00
14757;BME280;40502;47.710;13.072;2022-07-05T08:06:02;101849.22;;;23.19;43.91
14757;BME280;40502;47.710;13.072;2022-07-05T08:09:05;101848.63;;;23.17;43.72
14757;BME280;40502;47.710;13.072;2022-07-05T08:12:17;101850.34;;;23.18;43.98
14757;BME280;40502;47.710;13.072;2022-07-05T08:15:20;101853.41;;;23.17;44.51
14757;BME280;40502;47.710;13.072;2022-07-05T08:18:25;101853.69;;;23.15;44.39
14757;BME280;40502;47.710;13.072;2022-07-05T08:21:47;101857.56;;;23.14;44.46
14757;BME280;40502;47.710;13.072;2022-07-05T08:24:51;101859.53;;;23.14;44.57
14757;BME280;40502;47.710;13.072;2022-07-05T08:27:55;101861.75;;;23.12;44.69
14757;BME280;40502;47.710;13.072;2022-07-05T08:30:59;101865.69;;;23.11;44.70
14757;BME280;40502;47.710;13.072;2022-07-05T08:34:03;101869.56;;;23.10;44.43
14757;BME280;40502;47.710;13.072;2022-07-05T08:37:09;101866.19;;;23.08;44.51
14757;BME280;40502;47.710;13.072;2022-07-05T08:40:21;101868.72;;;23.09;44.40
14757;BME280;40502;47.710;13.072;2022-07-05T08:43:27;101876.50;;;23.07;44.34
14757;BME280;40502;47.710;13.072;2022-07-05T08:46:32;101879.91;;;23.09;44.20
14757;BME280;40502;47.710;13.072;2022-07-05T08:49:38;101871.19;;;23.06;43.96
14757;BME280;40502;47.710;13.072;2022-07-05T08:52:45;101874.84;;;23.06;43.74
14757;BME280;40502;47.710;13.072;2022-07-05T08:55:50;101875.34;;;23.03;43.60
14757;BME280;40502;47.710;13.072;2022-07-05T08:58:54;101865.88;;;23.04;43.43
14757;BME280;40502;47.710;13.072;2022-07-05T09:01:59;101874.53;;;23.02;43.10
14757;BME280;40502;47.710;13.072;2022-07-05T09:05:04;101868.94;;;23.02;43.37
14757;BME280;40502;47.710;13.072;2022-07-05T09:08:13;101864.16;;;23.03;43.21
14757;BME280;40502;47.710;13.072;2022-07-05T09:11:23;101867.22;;;23.01;43.20
14757;BME280;40502;47.710;13.072;2022-07-05T09:14:27;101872.00;;;23.01;43.31
14757;BME280;40502;47.710;13.072;2022-07-05T09:17:31;101872.00;;;23.01;43.31
14757;BME280;40502;47.710;13.072;2022-07-05T09:20:35;101872.00;;;23.01;43.11
14757;BME280;40502;47.710;13.072;2022-07-05T09:23:40;101855.22;;;23.01;43.04
14757;BME280;40502;47.710;13.072;2022-07-05T09:26:46;101862.50;;;23.02;42.96
14757;BME280;40502;47.710;13.072;2022-07-05T09:29:54;101870.91;;;23.02;42.91
14757;BME280;40502;47.710;13.072;2022-07-05T09:33:08;101869.19;;;23.01;42.82
14757;BME280;40502;47.710;13.072;2022-07-05T09:36:13;101867.50;;;23.00;43.04
14757;BME280;40502;47.710;13.072;2022-07-05T09:39:18;101859.13;;;23.00;42.89
14757;BME280;40502;47.710;13.072;2022-07-05T09:42:37;101861.06;;;22.99;42.74
14757;BME280;40502;47.710;13.072;2022-07-05T09:45:50;101860.28;;;23.04;42.86
14757;BME280;40502;47.710;13.072;2022-07-05T09:48:54;101866.13;;;23.02;42.72
14757;BME280;40502;47.710;13.072;2022-07-05T09:51:58;101872.00;;;23.01;42.64
14757;BME280;40502;47.710;13.072;2022-07-05T09:55:05;101865.31;;;23.07;42.46
14757;BME280;40502;47.710;13.072;2022-07-05T09:58:12;101866.19;;;23.08;42.36
14757;BME280;40502;47.710;13.072;2022-07-05T10:01:23;101867.22;;;23.01;42.24
14757;BME280;40502;47.710;13.072;2022-07-05T10:04:27;101870.31;;;23.00;42.34
14757;BME280;40502;47.710;13.072;2022-07-05T10:07:31;101885.41;;;22.99;42.57
14757;BME280;40502;47.710;13.072;2022-07-05T10:10:37;101884.03;;;23.01;42.58
14757;BME280;40502;47.710;13.072;2022-07-05T10:13:43;101880.13;;;23.02;42.84
14757;BME280;40502;47.710;13.072;2022-07-05T10:16:53;101882.66;;;23.04;42.81
14757;BME280;40502;47.710;13.072;2022-07-05T10:20:00;101883.47;;;23.04;42.86
14757;BME280;40502;47.710;13.072;2022-07-05T10:23:06;101876.22;;;23.03;43.09
14757;BME280;40502;47.710;13.072;2022-07-05T10:26:13;101874.84;;;23.06;43.05
14757;BME280;40502;47.710;13.072;2022-07-05T10:29:18;101867.56;;;23.05;42.98
14757;BME280;40502;47.710;13.072;2022-07-05T10:32:22;101880.44;;;23.06;43.12
14757;BME280;40502;47.710;13.072;2022-07-05T10:35:27;101874.00;;;23.06;43.01
14757;BME280;40502;47.710;13.072;2022-07-05T10:38:35;101873.72;;;23.07;42.92
14757;BME280;40502;47.710;13.072;2022-07-05T10:41:40;101865.31;;;23.07;42.98
14757;BME280;40502;47.710;13.072;2022-07-05T10:44:46;101864.50;;;23.07;42.87
14757;BME280;40502;47.710;13.072;2022-07-05T10:51:35;101859.72;;;23.07;43.07
14757;BME280;40502;47.710;13.072;2022-07-05T10:55:20;101872.34;;;23.10;43.11
14757;BME280;40502;47.710;13.072;2022-07-05T10:58:27;101870.91;;;23.07;42.90
14757;BME280;40502;47.710;13.072;2022-07-05T11:01:49;101873.22;;;23.10;42.85
14757;BME280;40502;47.710;13.072;2022-07-05T11:04:55;101861.00;;;23.21;42.59
14757;BME280;40502;47.710;13.072;2022-07-05T11:08:00;101862.69;;;23.28;42.49
14757;BME280;40502;47.710;13.072;2022-07-05T11:11:09;101856.53;;;23.26;42.65
14757;BME280;40502;47.710;13.072;2022-07-05T11:14:37;101865.97;;;23.14;42.99
14757;BME280;40502;47.710;13.072;2022-07-05T11:17:41;101863.84;;;23.27;43.13
14757;BME280;40502;47.710;13.072;2022-07-05T11:21:16;101853.81;;;23.36;43.04
14757;BME280;40502;47.710;13.072;2022-07-05T11:24:22;101855.22;;;23.38;43.18
14757;BME280;40502;47.710;13.072;2022-07-05T11:27:26;101841.78;;;23.41;43.54
14757;BME280;40502;47.710;13.072;2022-07-05T11:30:44;101851.91;;;23.47;43.47
14757;BME280;40502;47.710;13.072;2022-07-05T11:33:48;101852.75;;;23.47;43.79
14757;BME280;40502;47.710;13.072;2022-07-05T11:37:18;101846.63;;;23.50;44.12
14757;BME280;40502;47.710;13.072;2022-07-05T11:40:43;101847.41;;;23.41;44.36
14757;BME280;40502;47.710;13.072;2022-07-05T11:43:55;101854.09;;;23.34;44.72
14757;BME280;40502;47.710;13.072;2022-07-05T11:47:02;101848.16;;;23.31;44.84
14757;BME280;40502;47.710;13.072;2022-07-05T11:50:10;101846.63;;;23.50;44.32
14757;BME280;40502;47.710;13.072;2022-07-05T11:53:25;101835.97;;;23.52;44.14
14757;BME280;40502;47.710;13.072;2022-07-05T11:56:49;101842.69;;;23.51;44.06
14757;BME280;40502;47.710;13.072;2022-07-05T11:59:53;101846.63;;;23.50;43.82
14757;BME280;40502;47.710;13.072;2022-07-05T12:02:59;101840.75;;;23.52;43.57
14757;BME280;40502;47.710;13.072;2022-07-05T12:06:12;101843.56;;;23.52;43.76
14757;BME280;40502;47.710;13.072;2022-07-05T12:09:22;101853.88;;;23.51;43.73
14757;BME280;40502;47.710;13.072;2022-07-05T12:12:26;101853.06;;;23.51;43.79
14757;BME280;40502;47.710;13.072;2022-07-05T12:15:58;101849.97;;;23.52;44.03
14757;BME280;40502;47.710;13.072;2022-07-05T12:19:04;101853.88;;;23.51;44.21
14757;BME280;40502;47.710;13.072;2022-07-05T12:22:09;101846.63;;;23.50;44.01
14757;BME280;40502;47.710;13.072;2022-07-05T12:25:14;101842.69;;;23.51;44.38
14757;BME280;40502;47.710;13.072;2022-07-05T12:28:18;101835.97;;;23.52;44.28
14757;BME280;40502;47.710;13.072;2022-07-05T12:31:23;101837.41;;;23.55;44.13
14757;BME280;40502;47.710;13.072;2022-07-05T12:34:29;101838.50;;;23.54;44.29
14757;BME280;40502;47.710;13.072;2022-07-05T12:37:33;101837.41;;;23.55;44.42
14757;BME280;40502;47.710;13.072;2022-07-05T12:40:38;101832.63;;;23.55;44.48
14757;BME280;40502;47.710;13.072;2022-07-05T12:43:52;101830.44;;;23.58;44.32
14757;BME280;40502;47.710;13.072;2022-07-05T12:47:03;101820.88;;;23.59;44.26
14757;BME280;40502;47.710;13.072;2022-07-05T12:50:09;101824.81;;;23.58;44.11
14757;BME280;40502;47.710;13.072;2022-07-05T12:53:13;101830.44;;;23.58;44.39
14757;BME280;40502;47.710;13.072;2022-07-05T12:56:35;101813.63;;;23.58;44.10
14757;BME280;40502;47.710;13.072;2022-07-05T13:00:17;101815.88;;;23.66;43.83
14757;BME280;40502;47.710;13.072;2022-07-05T13:03:21;101813.06;;;23.61;43.55
14757;BME280;40502;47.710;13.072;2022-07-05T13:06:44;101820.88;;;23.59;43.71
14757;BME280;40502;47.710;13.072;2022-07-05T13:09:48;101818.09;;;23.59;43.53
14757;BME280;40502;47.710;13.072;2022-07-05T13:12:53;101815.28;;;23.59;43.91
14757;BME280;40502;47.710;13.072;2022-07-05T13:15:56;101808.03;;;23.58;43.53
14757;BME280;40502;47.710;13.072;2022-07-05T13:19:08;101819.22;;;23.58;43.40
14757;BME280;40502;47.710;13.072;2022-07-05T13:22:14;101808.59;;;23.60;43.39
14757;BME280;40502;47.710;13.072;2022-07-05T13:25:18;101808.84;;;23.58;43.43
14757;BME280;40502;47.710;13.072;2022-07-05T13:28:22;101822.03;;;23.58;42.39
14757;BME280;40502;47.710;13.072;2022-07-05T13:31:26;101820.06;;;23.58;42.79
14757;BME280;40502;47.710;13.072;2022-07-05T13:34:32;101813.63;;;23.58;42.54
14757;BME280;40502;47.710;13.072;2022-07-05T13:37:38;101806.88;;;23.59;41.98
14757;BME280;40502;47.710;13.072;2022-07-05T13:40:41;101809.13;;;23.56;41.77
14757;BME280;40502;47.710;13.072;2022-07-05T13:43:45;101804.09;;;23.59;42.53
14757;BME280;40502;47.710;13.072;2022-07-05T13:46:49;101805.78;;;23.60;42.93
14757;BME280;40502;47.710;13.072;2022-07-05T13:49:53;101807.47;;;23.61;42.63
14757;BME280;40502;47.710;13.072;2022-07-05T13:53:18;101820.34;;;23.62;42.69
14757;BME280;40502;47.710;13.072;2022-07-05T13:56:22;101803.53;;;23.62;42.55
14757;BME280;40502;47.710;13.072;2022-07-05T13:59:27;101805.22;;;23.63;42.52
14757;BME280;40502;47.710;13.072;2022-07-05T14:02:30;101794.88;;;23.63;42.57
14757;BME280;40502;47.710;13.072;2022-07-05T14:05:34;101796.56;;;23.64;42.74
14757;BME280;40502;47.710;13.072;2022-07-05T14:08:40;101793.75;;;23.64;42.88
14757;BME280;40502;47.710;13.072;2022-07-05T14:11:44;101798.25;;;23.65;42.81
14757;BME280;40502;47.710;13.072;2022-07-05T14:14:48;101798.06;;;23.87;42.08
14757;BME280;40502;47.710;13.072;2022-07-05T14:17:52;101799.13;;;23.76;42.25
14757;BME280;40502;47.710;13.072;2022-07-05T14:20:56;101796.31;;;23.71;42.67
14757;BME280;40502;47.710;13.072;2022-07-05T14:24:01;101799.13;;;23.71;42.62
14757;BME280;40502;47.710;13.072;2022-07-05T14:27:05;101800.22;;;23.70;42.40
14757;BME280;40502;47.710;13.072;2022-07-05T14:30:11;101796.31;;;23.71;42.76
14757;BME280;40502;47.710;13.072;2022-07-05T14:33:15;101798.00;;;23.72;42.51
14757;BME280;40502;47.710;13.072;2022-07-05T14:36:21;101798.84;;;23.72;42.74
14757;BME280;40502;47.710;13.072;2022-07-05T14:39:26;101788.47;;;23.73;42.44
14757;BME280;40502;47.710;13.072;2022-07-05T14:42:30;101794.06;;;23.73;42.16
14757;BME280;40502;47.710;13.072;2022-07-05T14:45:34;101790.16;;;23.74;42.32
14757;BME280;40502;47.710;13.072;2022-07-05T14:48:37;101794.66;;;23.75;42.40
14757;BME280;40502;47.710;13.072;2022-07-05T14:51:41;101787.91;;;23.76;42.10
14757;BME280;40502;47.710;13.072;2022-07-05T14:54:47;101787.91;;;23.76;42.01
14757;BME280;40502;47.710;13.072;2022-07-05T14:57:51;101793.50;;;23.76;41.16
14757;BME280;40502;47.710;13.072;2022-07-05T15:00:55;101792.41;;;23.77;41.49
14757;BME280;40502;47.710;13.072;2022-07-05T15:03:59;101787.91;;;23.76;41.48
14757;BME280;40502;47.710;13.072;2022-07-05T15:07:03;101789.59;;;23.77;41.37
14757;BME280;40502;47.710;13.072;2022-07-05T15:10:09;101791.03;;;23.80;41.33
14757;BME280;40502;47.710;13.072;2022-07-05T15:13:12;101793.81;;;23.80;41.69
14757;BME280;40502;47.710;13.072;2022-07-05T15:16:17;101789.06;;;23.80;41.21
14757;BME280;40502;47.710;13.072;2022-07-05T15:19:21;101785.16;;;23.81;41.51
14757;BME280;40502;47.710;13.072;2022-07-05T15:22:25;101781.78;;;23.84;41.29
14757;BME280;40502;47.710;13.072;2022-07-05T15:25:30;101776.78;;;23.86;41.46
14757;BME280;40502;47.710;13.072;2022-07-05T15:28:34;101776.78;;;23.86;41.51
14757;BME280;40502;47.710;13.072;2022-07-05T15:31:38;101778.47;;;23.87;41.34
14757;BME280;40502;47.710;13.072;2022-07-05T15:34:42;101781.00;;;23.89;41.21
14757;BME280;40502;47.710;13.072;2022-07-05T15:37:46;101775.13;;;23.90;41.29
14757;BME280;40502;47.710;13.072;2022-07-05T15:40:51;101770.91;;;23.93;41.36
14757;BME280;40502;47.710;13.072;2022-07-05T15:43:55;101782.97;;;23.94;41.50
14757;BME280;40502;47.710;13.072;2022-07-05T15:46:59;101782.97;;;23.94;41.43
14757;BME280;40502;47.710;13.072;2022-07-05T15:50:06;101785.75;;;23.94;41.38
14757;BME280;40502;47.710;13.072;2022-07-05T15:53:37;101785.22;;;23.97;41.21
14757;BME280;40502;47.710;13.072;2022-07-05T15:56:42;101788.00;;;23.97;41.57
14757;BME280;40502;47.710;13.072;2022-07-05T15:59:47;101796.13;;;23.98;41.29
14757;BME280;40502;47.710;13.072;2022-07-05T16:02:51;101792.53;;;24.03;41.13
14757;BME280;40502;47.710;13.072;2022-07-05T16:06:02;101794.78;;;24.11;40.87